sensor_id;sensor_type;location;lat;lon;timestamp;P1;durP1;ratioP1;P2;durP2;ratioP2
8230;SDS011;4156;50.908;6.974;2023-12-20T00:02:16;6.20;;;5.60;;
8230;SDS011;4156;50.908;6.974;2023-12-20T00:04:42;7.00;;;6.30;;
8230;SDS011;4156;50.908;6.974;2023-12-20T00:07:07;7.37;;;6.20;;
8230;SDS011;4156;50.908;6.974;2023-12-20T00:09:33;6.43;;;5.73;;
8230;SDS011;4156;50.908;6.974;2023-12-20T00:11:58;6.87;;;5.80;;
8230;SDS011;4156;50.908;6.974;2023-12-20T00:14:24;8.37;;;6.30;;
8230;SDS011;4156;50.908;6.974;2023-12-20T00:16:50;6.87;;;6.07;;
8230;SDS011;4156;50.908;6.974;2023-12-20T00:19:15;7.20;;;6.43;;
8230;SDS011;4156;50.908;6.974;2023-12-20T00:21:41;8.80;;;6.53;;
8230;SDS011;4156;50.908;6.974;2023-12-20T00:24:07;6.90;;;5.93;;
8230;SDS011;4156;50.908;6.974;2023-12-20T00:26:32;7.87;;;6.30;;
8230;SDS011;4156;50.908;6.974;2023-12-20T00:28:58;8.23;;;6.40;;
8230;SDS011;4156;50.908;6.974;2023-12-20T00:31:23;7.60;;;6.80;;
8230;SDS011;4156;50.908;6.974;2023-12-20T00:33:49;8.23;;;6.07;;
8230;SDS011;4156;50.908;6.974;2023-12-20T00:36:14;7.17;;;5.57;;
8230;SDS011;4156;50.908;6.974;2023-12-20T00:38:40;7.83;;;6.10;;
8230;SDS011;4156;50.908;6.974;2023-12-20T00:41:05;6.40;;;5.60;;
8230;SDS011;4156;50.908;6.974;2023-12-20T00:43:31;8.37;;;6.03;;
8230;SDS011;4156;50.908;6.974;2023-12-20T00:45:57;6.93;;;5.90;;
8230;SDS011;4156;50.908;6.974;2023-12-20T00:48:24;6.10;;;5.00;;
8230;SDS011;4156;50.908;6.974;2023-12-20T00:50:52;6.10;;;4.83;;
8230;SDS011;4156;50.908;6.974;2023-12-20T00:53:17;5.47;;;4.50;;
8230;SDS011;4156;50.908;6.974;2023-12-20T00:55:43;5.70;;;5.10;;
8230;SDS011;4156;50.908;6.974;2023-12-20T00:58:10;5.43;;;4.90;;
8230;SDS011;4156;50.908;6.974;2023-12-20T01:00:35;6.03;;;5.27;;
8230;SDS011;4156;50.908;6.974;2023-12-20T01:03:01;5.77;;;5.17;;
8230;SDS011;4156;50.908;6.974;2023-12-20T01:05:26;6.57;;;5.67;;
8230;SDS011;4156;50.908;6.974;2023-12-20T01:07:52;6.67;;;5.30;;
8230;SDS011;4156;50.908;6.974;2023-12-20T01:10:17;6.97;;;5.33;;
8230;SDS011;4156;50.908;6.974;2023-12-20T01:12:43;6.37;;;5.23;;
8230;SDS011;4156;50.908;6.974;2023-12-20T01:15:09;6.57;;;5.70;;
8230;SDS011;4156;50.908;6.974;2023-12-20T01:17:35;7.00;;;5.07;;
8230;SDS011;4156;50.908;6.974;2023-12-20T01:20:00;5.87;;;4.57;;
8230;SDS011;4156;50.908;6.974;2023-12-20T01:22:26;5.57;;;4.50;;
8230;SDS011;4156;50.908;6.974;2023-12-20T01:24:52;7.53;;;4.83;;
8230;SDS011;4156;50.908;6.974;2023-12-20T01:27:17;7.47;;;4.67;;
8230;SDS011;4156;50.908;6.974;2023-12-20T01:29:43;7.30;;;5.30;;
8230;SDS011;4156;50.908;6.974;2023-12-20T01:32:08;6.57;;;4.57;;
8230;SDS011;4156;50.908;6.974;2023-12-20T01:34:34;5.07;;;4.43;;
8230;SDS011;4156;50.908;6.974;2023-12-20T01:36:59;6.67;;;5.00;;
8230;SDS011;4156;50.908;6.974;2023-12-20T01:39:25;7.93;;;5.10;;
8230;SDS011;4156;50.908;6.974;2023-12-20T01:41:51;12.77;;;4.97;;
8230;SDS011;4156;50.908;6.974;2023-12-20T01:44:17;6.10;;;4.50;;
8230;SDS011;4156;50.908;6.974;2023-12-20T01:46:42;8.63;;;4.77;;
8230;SDS011;4156;50.908;6.974;2023-12-20T01:49:08;5.37;;;4.67;;
8230;SDS011;4156;50.908;6.974;2023-12-20T01:51:33;9.13;;;6.10;;
8230;SDS011;4156;50.908;6.974;2023-12-20T01:54:00;8.33;;;5.70;;
8230;SDS011;4156;50.908;6.974;2023-12-20T01:56:26;8.37;;;5.90;;
8230;SDS011;4156;50.908;6.974;2023-12-20T01:58:53;7.67;;;6.50;;
8230;SDS011;4156;50.908;6.974;2023-12-20T02:01:21;9.10;;;6.60;;
8230;SDS011;4156;50.908;6.974;2023-12-20T02:03:46;9.93;;;6.60;;
8230;SDS011;4156;50.908;6.974;2023-12-20T02:06:12;11.50;;;7.40;;
8230;SDS011;4156;50.908;6.974;2023-12-20T02:08:38;9.40;;;6.60;;
8230;SDS011;4156;50.908;6.974;2023-12-20T02:11:04;9.77;;;6.10;;
8230;SDS011;4156;50.908;6.974;2023-12-20T02:13:30;9.37;;;6.50;;
8230;SDS011;4156;50.908;6.974;2023-12-20T02:15:56;7.93;;;5.47;;
8230;SDS011;4156;50.908;6.974;2023-12-20T02:18:22;8.03;;;5.70;;
8230;SDS011;4156;50.908;6.974;2023-12-20T02:20:47;8.10;;;5.57;;
8230;SDS011;4156;50.908;6.974;2023-12-20T02:23:13;7.83;;;4.27;;
8230;SDS011;4156;50.908;6.974;2023-12-20T02:25:38;6.50;;;4.77;;
8230;SDS011;4156;50.908;6.974;2023-12-20T02:28:04;6.53;;;4.67;;
8230;SDS011;4156;50.908;6.974;2023-12-20T02:30:30;7.80;;;3.80;;
8230;SDS011;4156;50.908;6.974;2023-12-20T02:32:56;5.60;;;3.97;;
8230;SDS011;4156;50.908;6.974;2023-12-20T02:35:22;5.37;;;3.90;;
8230;SDS011;4156;50.908;6.974;2023-12-20T02:37:48;9.13;;;4.50;;
8230;SDS011;4156;50.908;6.974;2023-12-20T02:40:13;8.03;;;3.70;;
8230;SDS011;4156;50.908;6.974;2023-12-20T02:42:39;5.60;;;3.23;;
8230;SDS011;4156;50.908;6.974;2023-12-20T02:45:04;9.67;;;3.80;;
8230;SDS011;4156;50.908;6.974;2023-12-20T02:47:30;4.57;;;3.00;;
8230;SDS011;4156;50.908;6.974;2023-12-20T02:49:56;5.73;;;3.20;;
8230;SDS011;4156;50.908;6.974;2023-12-20T02:52:22;4.83;;;2.93;;
8230;SDS011;4156;50.908;6.974;2023-12-20T02:54:49;6.20;;;3.53;;
8230;SDS011;4156;50.908;6.974;2023-12-20T02:57:14;10.83;;;2.90;;
8230;SDS011;4156;50.908;6.974;2023-12-20T02:59:40;10.77;;;2.60;;
8230;SDS011;4156;50.908;6.974;2023-12-20T03:02:05;8.00;;;2.60;;
8230;SDS011;4156;50.908;6.974;2023-12-20T03:04:31;8.00;;;2.80;;
8230;SDS011;4156;50.908;6.974;2023-12-20T03:06:56;9.13;;;2.90;;
8230;SDS011;4156;50.908;6.974;2023-12-20T03:09:22;9.73;;;2.53;;
8230;SDS011;4156;50.908;6.974;2023-12-20T03:11:47;11.60;;;3.50;;
8230;SDS011;4156;50.908;6.974;2023-12-20T03:14:13;7.80;;;2.40;;
8230;SDS011;4156;50.908;6.974;2023-12-20T03:16:38;12.10;;;2.60;;
8230;SDS011;4156;50.908;6.974;2023-12-20T03:19:04;12.00;;;3.57;;
8230;SDS011;4156;50.908;6.974;2023-12-20T03:21:29;5.67;;;2.37;;
8230;SDS011;4156;50.908;6.974;2023-12-20T03:23:55;6.60;;;2.47;;
8230;SDS011;4156;50.908;6.974;2023-12-20T03:26:20;8.60;;;2.70;;
8230;SDS011;4156;50.908;6.974;2023-12-20T03:28:47;9.07;;;2.90;;
8230;SDS011;4156;50.908;6.974;2023-12-20T03:31:13;8.37;;;2.60;;
8230;SDS011;4156;50.908;6.974;2023-12-20T03:33:39;4.03;;;2.60;;
8230;SDS011;4156;50.908;6.974;2023-12-20T03:36:04;10.93;;;2.70;;
8230;SDS011;4156;50.908;6.974;2023-12-20T03:38:30;8.33;;;2.67;;
8230;SDS011;4156;50.908;6.974;2023-12-20T03:40:55;6.20;;;2.67;;
8230;SDS011;4156;50.908;6.974;2023-12-20T03:43:21;5.57;;;2.60;;
8230;SDS011;4156;50.908;6.974;2023-12-20T03:45:46;8.37;;;2.30;;
8230;SDS011;4156;50.908;6.974;2023-12-20T03:48:12;5.97;;;2.33;;
8230;SDS011;4156;50.908;6.974;2023-12-20T03:50:38;9.73;;;3.30;;
8230;SDS011;4156;50.908;6.974;2023-12-20T03:53:03;8.30;;;2.40;;
8230;SDS011;4156;50.908;6.974;2023-12-20T03:55:29;6.90;;;2.53;;
8230;SDS011;4156;50.908;6.974;2023-12-20T03:57:54;7.63;;;3.30;;
8230;SDS011;4156;50.908;6.974;2023-12-20T04:00:20;7.73;;;2.50;;
8230;SDS011;4156;50.908;6.974;2023-12-20T04:02:45;3.97;;;2.33;;
8230;SDS011;4156;50.908;6.974;2023-12-20T04:05:11;13.07;;;3.67;;
8230;SDS011;4156;50.908;6.974;2023-12-20T04:07:37;3.50;;;2.00;;
8230;SDS011;4156;50.908;6.974;2023-12-20T04:10:03;5.23;;;2.50;;
8230;SDS011;4156;50.908;6.974;2023-12-20T04:12:29;7.60;;;2.77;;
8230;SDS011;4156;50.908;6.974;2023-12-20T04:14:54;9.07;;;3.60;;
8230;SDS011;4156;50.908;6.974;2023-12-20T04:17:20;6.30;;;2.30;;
8230;SDS011;4156;50.908;6.974;2023-12-20T04:19:47;5.73;;;2.30;;
8230;SDS011;4156;50.908;6.974;2023-12-20T04:22:13;7.27;;;2.70;;
8230;SDS011;4156;50.908;6.974;2023-12-20T04:24:39;10.03;;;2.87;;
8230;SDS011;4156;50.908;6.974;2023-12-20T04:27:07;11.97;;;3.17;;
8230;SDS011;4156;50.908;6.974;2023-12-20T04:29:33;12.23;;;3.20;;
8230;SDS011;4156;50.908;6.974;2023-12-20T04:31:58;7.97;;;2.33;;
8230;SDS011;4156;50.908;6.974;2023-12-20T04:34:24;8.80;;;3.17;;
8230;SDS011;4156;50.908;6.974;2023-12-20T04:36:49;13.80;;;5.43;;
8230;SDS011;4156;50.908;6.974;2023-12-20T04:39:15;7.33;;;3.00;;
8230;SDS011;4156;50.908;6.974;2023-12-20T04:41:41;8.57;;;3.20;;
8230;SDS011;4156;50.908;6.974;2023-12-20T04:44:06;9.40;;;3.73;;
8230;SDS011;4156;50.908;6.974;2023-12-20T04:46:32;9.33;;;3.60;;
8230;SDS011;4156;50.908;6.974;2023-12-20T04:48:57;9.67;;;3.53;;
8230;SDS011;4156;50.908;6.974;2023-12-20T04:51:23;18.10;;;3.90;;
8230;SDS011;4156;50.908;6.974;2023-12-20T04:53:49;8.87;;;3.30;;
8230;SDS011;4156;50.908;6.974;2023-12-20T04:56:14;11.90;;;3.80;;
8230;SDS011;4156;50.908;6.974;2023-12-20T04:58:40;8.37;;;3.60;;
8230;SDS011;4156;50.908;6.974;2023-12-20T05:01:05;7.87;;;3.73;;
8230;SDS011;4156;50.908;6.974;2023-12-20T05:03:32;8.73;;;3.80;;
8230;SDS011;4156;50.908;6.974;2023-12-20T05:05:57;5.60;;;3.37;;
8230;SDS011;4156;50.908;6.974;2023-12-20T05:08:23;9.07;;;3.47;;
8230;SDS011;4156;50.908;6.974;2023-12-20T05:10:49;12.33;;;3.47;;
8230;SDS011;4156;50.908;6.974;2023-12-20T05:13:16;7.43;;;3.33;;
8230;SDS011;4156;50.908;6.974;2023-12-20T05:15:41;17.53;;;4.23;;
8230;SDS011;4156;50.908;6.974;2023-12-20T05:18:07;9.27;;;3.40;;
8230;SDS011;4156;50.908;6.974;2023-12-20T05:20:32;12.23;;;3.40;;
8230;SDS011;4156;50.908;6.974;2023-12-20T05:22:58;7.37;;;3.00;;
8230;SDS011;4156;50.908;6.974;2023-12-20T05:25:23;6.97;;;3.00;;
8230;SDS011;4156;50.908;6.974;2023-12-20T05:27:49;11.00;;;3.70;;
8230;SDS011;4156;50.908;6.974;2023-12-20T05:30:15;6.73;;;2.93;;
8230;SDS011;4156;50.908;6.974;2023-12-20T05:32:40;6.97;;;3.53;;
8230;SDS011;4156;50.908;6.974;2023-12-20T05:35:06;12.07;;;4.37;;
8230;SDS011;4156;50.908;6.974;2023-12-20T05:37:32;8.50;;;3.83;;
8230;SDS011;4156;50.908;6.974;2023-12-20T05:39:57;9.53;;;3.87;;
8230;SDS011;4156;50.908;6.974;2023-12-20T05:42:23;7.87;;;3.47;;
8230;SDS011;4156;50.908;6.974;2023-12-20T05:44:48;6.43;;;3.13;;
8230;SDS011;4156;50.908;6.974;2023-12-20T05:47:14;10.10;;;3.60;;
8230;SDS011;4156;50.908;6.974;2023-12-20T05:49:40;5.37;;;3.43;;
8230;SDS011;4156;50.908;6.974;2023-12-20T05:52:05;7.83;;;5.20;;
8230;SDS011;4156;50.908;6.974;2023-12-20T05:54:31;9.20;;;3.63;;
8230;SDS011;4156;50.908;6.974;2023-12-20T05:56:57;9.73;;;3.37;;
8230;SDS011;4156;50.908;6.974;2023-12-20T05:59:22;6.90;;;3.17;;
8230;SDS011;4156;50.908;6.974;2023-12-20T06:01:48;8.37;;;3.47;;
8230;SDS011;4156;50.908;6.974;2023-12-20T06:04:13;8.00;;;3.80;;
8230;SDS011;4156;50.908;6.974;2023-12-20T06:06:42;10.87;;;3.93;;
8230;SDS011;4156;50.908;6.974;2023-12-20T06:09:08;7.90;;;4.20;;
8230;SDS011;4156;50.908;6.974;2023-12-20T06:11:33;6.00;;;3.57;;
8230;SDS011;4156;50.908;6.974;2023-12-20T06:13:59;7.53;;;3.33;;
8230;SDS011;4156;50.908;6.974;2023-12-20T06:16:24;8.10;;;3.43;;
8230;SDS011;4156;50.908;6.974;2023-12-20T06:18:50;6.67;;;3.00;;
8230;SDS011;4156;50.908;6.974;2023-12-20T06:21:16;4.60;;;3.37;;
8230;SDS011;4156;50.908;6.974;2023-12-20T06:23:41;10.13;;;4.20;;
8230;SDS011;4156;50.908;6.974;2023-12-20T06:26:07;13.07;;;4.83;;
8230;SDS011;4156;50.908;6.974;2023-12-20T06:28:32;5.00;;;3.17;;
8230;SDS011;4156;50.908;6.974;2023-12-20T06:30:58;10.40;;;3.93;;
8230;SDS011;4156;50.908;6.974;2023-12-20T06:33:25;6.43;;;4.20;;
8230;SDS011;4156;50.908;6.974;2023-12-20T06:35:51;11.53;;;4.23;;
8230;SDS011;4156;50.908;6.974;2023-12-20T06:38:17;12.60;;;4.50;;
8230;SDS011;4156;50.908;6.974;2023-12-20T06:40:43;9.80;;;4.07;;
8230;SDS011;4156;50.908;6.974;2023-12-20T06:43:09;14.17;;;4.70;;
8230;SDS011;4156;50.908;6.974;2023-12-20T06:45:35;6.77;;;3.30;;
8230;SDS011;4156;50.908;6.974;2023-12-20T06:48:00;15.43;;;4.47;;
8230;SDS011;4156;50.908;6.974;2023-12-20T06:50:26;4.77;;;3.23;;
8230;SDS011;4156;50.908;6.974;2023-12-20T06:52:52;8.27;;;3.60;;
8230;SDS011;4156;50.908;6.974;2023-12-20T06:55:18;9.57;;;3.70;;
8230;SDS011;4156;50.908;6.974;2023-12-20T06:57:43;9.67;;;4.23;;
8230;SDS011;4156;50.908;6.974;2023-12-20T07:00:10;9.87;;;3.90;;
8230;SDS011;4156;50.908;6.974;2023-12-20T07:02:36;6.33;;;3.17;;
8230;SDS011;4156;50.908;6.974;2023-12-20T07:05:02;13.37;;;3.93;;
8230;SDS011;4156;50.908;6.974;2023-12-20T07:07:27;11.73;;;3.80;;
8230;SDS011;4156;50.908;6.974;2023-12-20T07:09:53;6.43;;;3.23;;
8230;SDS011;4156;50.908;6.974;2023-12-20T07:12:18;7.90;;;3.03;;
8230;SDS011;4156;50.908;6.974;2023-12-20T07:14:44;5.43;;;2.73;;
8230;SDS011;4156;50.908;6.974;2023-12-20T07:17:10;5.73;;;2.43;;
8230;SDS011;4156;50.908;6.974;2023-12-20T07:19:38;13.00;;;3.67;;
8230;SDS011;4156;50.908;6.974;2023-12-20T07:22:05;8.23;;;2.73;;
8230;SDS011;4156;50.908;6.974;2023-12-20T07:24:31;11.73;;;3.33;;
8230;SDS011;4156;50.908;6.974;2023-12-20T07:26:57;9.63;;;3.90;;
8230;SDS011;4156;50.908;6.974;2023-12-20T07:29:22;9.47;;;4.20;;
8230;SDS011;4156;50.908;6.974;2023-12-20T07:31:48;4.47;;;2.50;;
8230;SDS011;4156;50.908;6.974;2023-12-20T07:34:13;5.87;;;3.00;;
8230;SDS011;4156;50.908;6.974;2023-12-20T07:36:39;8.20;;;3.10;;
8230;SDS011;4156;50.908;6.974;2023-12-20T07:39:04;10.07;;;2.60;;
8230;SDS011;4156;50.908;6.974;2023-12-20T07:41:30;10.93;;;3.60;;
8230;SDS011;4156;50.908;6.974;2023-12-20T07:43:55;7.70;;;2.97;;
8230;SDS011;4156;50.908;6.974;2023-12-20T07:46:21;10.13;;;3.73;;
8230;SDS011;4156;50.908;6.974;2023-12-20T07:48:50;12.67;;;3.80;;
8230;SDS011;4156;50.908;6.974;2023-12-20T07:51:15;16.00;;;4.97;;
8230;SDS011;4156;50.908;6.974;2023-12-20T07:53:41;5.47;;;2.80;;
8230;SDS011;4156;50.908;6.974;2023-12-20T07:56:16;8.20;;;3.13;;
8230;SDS011;4156;50.908;6.974;2023-12-20T07:58:43;8.97;;;3.30;;
8230;SDS011;4156;50.908;6.974;2023-12-20T08:01:09;7.50;;;3.30;;
8230;SDS011;4156;50.908;6.974;2023-12-20T08:03:35;4.13;;;2.83;;
8230;SDS011;4156;50.908;6.974;2023-12-20T08:06:01;13.83;;;4.57;;
8230;SDS011;4156;50.908;6.974;2023-12-20T08:08:27;7.33;;;2.97;;
8230;SDS011;4156;50.908;6.974;2023-12-20T08:10:53;8.20;;;3.63;;
8230;SDS011;4156;50.908;6.974;2023-12-20T08:13:18;6.23;;;2.53;;
8230;SDS011;4156;50.908;6.974;2023-12-20T08:15:44;5.93;;;3.23;;
8230;SDS011;4156;50.908;6.974;2023-12-20T08:18:09;11.07;;;3.40;;
8230;SDS011;4156;50.908;6.974;2023-12-20T08:20:35;13.37;;;4.30;;
8230;SDS011;4156;50.908;6.974;2023-12-20T08:23:00;7.90;;;3.33;;
8230;SDS011;4156;50.908;6.974;2023-12-20T08:25:26;9.13;;;3.27;;
8230;SDS011;4156;50.908;6.974;2023-12-20T08:27:52;10.10;;;3.33;;
8230;SDS011;4156;50.908;6.974;2023-12-20T08:30:18;10.67;;;3.37;;
8230;SDS011;4156;50.908;6.974;2023-12-20T08:32:46;5.07;;;2.80;;
8230;SDS011;4156;50.908;6.974;2023-12-20T08:35:14;11.10;;;3.70;;
8230;SDS011;4156;50.908;6.974;2023-12-20T08:37:40;14.10;;;3.10;;
8230;SDS011;4156;50.908;6.974;2023-12-20T08:40:06;5.23;;;2.90;;
8230;SDS011;4156;50.908;6.974;2023-12-20T08:42:31;4.70;;;2.93;;
8230;SDS011;4156;50.908;6.974;2023-12-20T08:44:57;9.03;;;3.30;;
8230;SDS011;4156;50.908;6.974;2023-12-20T08:47:23;6.60;;;3.33;;
8230;SDS011;4156;50.908;6.974;2023-12-20T08:49:49;9.17;;;3.37;;
8230;SDS011;4156;50.908;6.974;2023-12-20T08:52:15;16.20;;;4.73;;
8230;SDS011;4156;50.908;6.974;2023-12-20T08:54:40;13.20;;;4.30;;
8230;SDS011;4156;50.908;6.974;2023-12-20T08:57:06;6.17;;;3.07;;
8230;SDS011;4156;50.908;6.974;2023-12-20T08:59:32;8.03;;;3.27;;
8230;SDS011;4156;50.908;6.974;2023-12-20T09:01:57;9.87;;;3.30;;
8230;SDS011;4156;50.908;6.974;2023-12-20T09:04:23;6.40;;;2.63;;
8230;SDS011;4156;50.908;6.974;2023-12-20T09:06:49;6.30;;;2.60;;
8230;SDS011;4156;50.908;6.974;2023-12-20T09:09:14;8.60;;;3.00;;
8230;SDS011;4156;50.908;6.974;2023-12-20T09:11:40;9.80;;;3.80;;
8230;SDS011;4156;50.908;6.974;2023-12-20T09:14:06;10.37;;;4.10;;
8230;SDS011;4156;50.908;6.974;2023-12-20T09:16:32;10.10;;;3.33;;
8230;SDS011;4156;50.908;6.974;2023-12-20T09:18:58;6.47;;;3.17;;
8230;SDS011;4156;50.908;6.974;2023-12-20T09:21:23;6.67;;;2.80;;
8230;SDS011;4156;50.908;6.974;2023-12-20T09:23:49;5.77;;;3.27;;
8230;SDS011;4156;50.908;6.974;2023-12-20T09:26:14;9.03;;;3.00;;
8230;SDS011;4156;50.908;6.974;2023-12-20T09:28:40;7.90;;;2.97;;
8230;SDS011;4156;50.908;6.974;2023-12-20T09:31:06;7.47;;;3.10;;
8230;SDS011;4156;50.908;6.974;2023-12-20T09:33:32;6.23;;;2.80;;
8230;SDS011;4156;50.908;6.974;2023-12-20T09:35:58;6.53;;;2.93;;
8230;SDS011;4156;50.908;6.974;2023-12-20T09:38:24;6.33;;;2.80;;
8230;SDS011;4156;50.908;6.974;2023-12-20T09:40:49;8.23;;;3.50;;
8230;SDS011;4156;50.908;6.974;2023-12-20T09:43:15;7.67;;;2.90;;
8230;SDS011;4156;50.908;6.974;2023-12-20T09:45:45;8.03;;;2.93;;
8230;SDS011;4156;50.908;6.974;2023-12-20T09:48:12;5.70;;;2.60;;
8230;SDS011;4156;50.908;6.974;2023-12-20T09:50:39;6.43;;;3.23;;
8230;SDS011;4156;50.908;6.974;2023-12-20T09:53:07;4.37;;;1.97;;
8230;SDS011;4156;50.908;6.974;2023-12-20T09:55:35;5.93;;;2.33;;
8230;SDS011;4156;50.908;6.974;2023-12-20T09:58:01;9.57;;;2.90;;
8230;SDS011;4156;50.908;6.974;2023-12-20T10:00:26;8.10;;;3.23;;
8230;SDS011;4156;50.908;6.974;2023-12-20T10:05:20;6.90;;;2.97;;
8230;SDS011;4156;50.908;6.974;2023-12-20T10:07:55;10.40;;;2.80;;
8230;SDS011;4156;50.908;6.974;2023-12-20T10:10:21;8.70;;;2.90;;
8230;SDS011;4156;50.908;6.974;2023-12-20T10:13:06;9.27;;;2.53;;
8230;SDS011;4156;50.908;6.974;2023-12-20T10:15:33;5.07;;;2.47;;
8230;SDS011;4156;50.908;6.974;2023-12-20T10:18:00;9.53;;;2.93;;
8230;SDS011;4156;50.908;6.974;2023-12-20T10:20:27;5.23;;;2.40;;
8230;SDS011;4156;50.908;6.974;2023-12-20T10:22:54;10.57;;;3.33;;
8230;SDS011;4156;50.908;6.974;2023-12-20T10:25:20;5.50;;;2.50;;
8230;SDS011;4156;50.908;6.974;2023-12-20T10:27:46;7.53;;;3.17;;
8230;SDS011;4156;50.908;6.974;2023-12-20T10:30:13;6.13;;;2.40;;
8230;SDS011;4156;50.908;6.974;2023-12-20T10:32:39;13.33;;;2.63;;
8230;SDS011;4156;50.908;6.974;2023-12-20T10:35:05;6.13;;;2.67;;
8230;SDS011;4156;50.908;6.974;2023-12-20T10:37:35;7.33;;;2.57;;
8230;SDS011;4156;50.908;6.974;2023-12-20T10:40:01;7.13;;;2.57;;
8230;SDS011;4156;50.908;6.974;2023-12-20T10:42:30;9.57;;;2.70;;
8230;SDS011;4156;50.908;6.974;2023-12-20T10:44:59;9.47;;;2.63;;
8230;SDS011;4156;50.908;6.974;2023-12-20T10:47:25;9.87;;;2.90;;
8230;SDS011;4156;50.908;6.974;2023-12-20T10:49:52;8.33;;;2.60;;
8230;SDS011;4156;50.908;6.974;2023-12-20T10:52:18;6.53;;;2.23;;
8230;SDS011;4156;50.908;6.974;2023-12-20T10:54:47;8.63;;;2.90;;
8230;SDS011;4156;50.908;6.974;2023-12-20T10:57:13;11.33;;;2.60;;
8230;SDS011;4156;50.908;6.974;2023-12-20T10:59:41;9.70;;;2.83;;
8230;SDS011;4156;50.908;6.974;2023-12-20T11:02:10;11.77;;;3.03;;
8230;SDS011;4156;50.908;6.974;2023-12-20T11:07:25;5.37;;;2.27;;
8230;SDS011;4156;50.908;6.974;2023-12-20T11:09:58;9.53;;;3.13;;
8230;SDS011;4156;50.908;6.974;2023-12-20T11:12:32;8.97;;;2.80;;
8230;SDS011;4156;50.908;6.974;2023-12-20T11:15:16;8.50;;;2.37;;
8230;SDS011;4156;50.908;6.974;2023-12-20T11:17:44;5.60;;;2.53;;
8230;SDS011;4156;50.908;6.974;2023-12-20T11:20:11;9.23;;;2.70;;
8230;SDS011;4156;50.908;6.974;2023-12-20T11:22:37;3.97;;;2.67;;
8230;SDS011;4156;50.908;6.974;2023-12-20T11:25:08;11.83;;;3.07;;
8230;SDS011;4156;50.908;6.974;2023-12-20T11:27:35;6.73;;;2.23;;
8230;SDS011;4156;50.908;6.974;2023-12-20T11:30:05;3.43;;;2.10;;
8230;SDS011;4156;50.908;6.974;2023-12-20T11:32:32;7.07;;;3.00;;
8230;SDS011;4156;50.908;6.974;2023-12-20T11:37:37;4.37;;;2.53;;
8230;SDS011;4156;50.908;6.974;2023-12-20T11:40:05;7.47;;;2.73;;
8230;SDS011;4156;50.908;6.974;2023-12-20T11:42:40;4.93;;;2.50;;
8230;SDS011;4156;50.908;6.974;2023-12-20T11:45:20;6.47;;;2.50;;
8230;SDS011;4156;50.908;6.974;2023-12-20T11:47:49;9.03;;;2.60;;
8230;SDS011;4156;50.908;6.974;2023-12-20T11:50:16;11.07;;;2.93;;
8230;SDS011;4156;50.908;6.974;2023-12-20T11:52:45;12.10;;;3.40;;
8230;SDS011;4156;50.908;6.974;2023-12-20T11:55:11;4.63;;;2.60;;
8230;SDS011;4156;50.908;6.974;2023-12-20T11:57:37;4.20;;;2.10;;
8230;SDS011;4156;50.908;6.974;2023-12-20T12:00:03;8.20;;;2.60;;
8230;SDS011;4156;50.908;6.974;2023-12-20T12:02:30;8.77;;;2.40;;
8230;SDS011;4156;50.908;6.974;2023-12-20T12:04:55;9.73;;;3.10;;
8230;SDS011;4156;50.908;6.974;2023-12-20T12:07:21;8.80;;;2.67;;
8230;SDS011;4156;50.908;6.974;2023-12-20T12:09:47;8.83;;;3.60;;
8230;SDS011;4156;50.908;6.974;2023-12-20T12:12:13;9.07;;;2.53;;
8230;SDS011;4156;50.908;6.974;2023-12-20T12:14:39;5.90;;;2.70;;
8230;SDS011;4156;50.908;6.974;2023-12-20T12:17:12;8.70;;;2.40;;
8230;SDS011;4156;50.908;6.974;2023-12-20T12:19:38;5.50;;;2.70;;
8230;SDS011;4156;50.908;6.974;2023-12-20T12:22:05;6.93;;;2.63;;
8230;SDS011;4156;50.908;6.974;2023-12-20T12:24:38;6.30;;;2.80;;
8230;SDS011;4156;50.908;6.974;2023-12-20T12:27:05;9.40;;;2.70;;
8230;SDS011;4156;50.908;6.974;2023-12-20T12:29:32;8.93;;;2.87;;
8230;SDS011;4156;50.908;6.974;2023-12-20T12:31:58;2.87;;;2.10;;
8230;SDS011;4156;50.908;6.974;2023-12-20T12:34:27;8.57;;;2.60;;
8230;SDS011;4156;50.908;6.974;2023-12-20T12:36:53;9.27;;;3.47;;
8230;SDS011;4156;50.908;6.974;2023-12-20T12:39:18;7.10;;;2.40;;
8230;SDS011;4156;50.908;6.974;2023-12-20T12:41:44;9.03;;;2.77;;
8230;SDS011;4156;50.908;6.974;2023-12-20T12:44:10;8.13;;;2.97;;
8230;SDS011;4156;50.908;6.974;2023-12-20T12:46:35;10.10;;;3.70;;
8230;SDS011;4156;50.908;6.974;2023-12-20T12:49:01;9.23;;;3.00;;
8230;SDS011;4156;50.908;6.974;2023-12-20T12:51:26;11.23;;;3.43;;
8230;SDS011;4156;50.908;6.974;2023-12-20T12:53:52;7.10;;;2.73;;
8230;SDS011;4156;50.908;6.974;2023-12-20T12:56:18;9.93;;;3.20;;
8230;SDS011;4156;50.908;6.974;2023-12-20T12:58:44;5.97;;;2.37;;
8230;SDS011;4156;50.908;6.974;2023-12-20T13:01:10;4.83;;;2.80;;
8230;SDS011;4156;50.908;6.974;2023-12-20T13:03:35;4.67;;;2.37;;
8230;SDS011;4156;50.908;6.974;2023-12-20T13:06:01;10.93;;;3.20;;
8230;SDS011;4156;50.908;6.974;2023-12-20T13:08:27;7.30;;;3.27;;
8230;SDS011;4156;50.908;6.974;2023-12-20T13:10:53;7.20;;;2.80;;
8230;SDS011;4156;50.908;6.974;2023-12-20T13:13:20;12.03;;;3.57;;
8230;SDS011;4156;50.908;6.974;2023-12-20T13:15:46;14.50;;;3.83;;
8230;SDS011;4156;50.908;6.974;2023-12-20T13:18:15;9.67;;;4.37;;
8230;SDS011;4156;50.908;6.974;2023-12-20T13:20:42;7.90;;;2.80;;
8230;SDS011;4156;50.908;6.974;2023-12-20T13:23:07;9.57;;;3.17;;
8230;SDS011;4156;50.908;6.974;2023-12-20T13:25:33;7.53;;;2.93;;
8230;SDS011;4156;50.908;6.974;2023-12-20T13:27:59;4.67;;;2.30;;
8230;SDS011;4156;50.908;6.974;2023-12-20T13:30:24;7.47;;;3.13;;
8230;SDS011;4156;50.908;6.974;2023-12-20T13:32:50;13.77;;;3.43;;
8230;SDS011;4156;50.908;6.974;2023-12-20T13:35:15;8.17;;;3.67;;
8230;SDS011;4156;50.908;6.974;2023-12-20T13:37:41;7.70;;;3.57;;
8230;SDS011;4156;50.908;6.974;2023-12-20T13:40:07;7.33;;;2.90;;
8230;SDS011;4156;50.908;6.974;2023-12-20T13:42:33;8.43;;;3.00;;
8230;SDS011;4156;50.908;6.974;2023-12-20T13:44:58;8.67;;;3.37;;
8230;SDS011;4156;50.908;6.974;2023-12-20T13:47:24;5.97;;;3.33;;
8230;SDS011;4156;50.908;6.974;2023-12-20T13:49:49;4.63;;;2.70;;
8230;SDS011;4156;50.908;6.974;2023-12-20T13:52:15;5.43;;;2.57;;
8230;SDS011;4156;50.908;6.974;2023-12-20T13:54:41;11.93;;;3.00;;
8230;SDS011;4156;50.908;6.974;2023-12-20T13:57:06;8.33;;;3.50;;
8230;SDS011;4156;50.908;6.974;2023-12-20T13:59:32;9.83;;;2.97;;
8230;SDS011;4156;50.908;6.974;2023-12-20T14:01:57;6.67;;;2.60;;
8230;SDS011;4156;50.908;6.974;2023-12-20T14:04:23;7.67;;;2.87;;
8230;SDS011;4156;50.908;6.974;2023-12-20T14:06:48;9.73;;;2.93;;
8230;SDS011;4156;50.908;6.974;2023-12-20T14:09:14;6.10;;;2.90;;
8230;SDS011;4156;50.908;6.974;2023-12-20T14:11:40;6.80;;;2.50;;
8230;SDS011;4156;50.908;6.974;2023-12-20T14:14:09;7.67;;;2.73;;
8230;SDS011;4156;50.908;6.974;2023-12-20T14:16:35;3.60;;;2.37;;
8230;SDS011;4156;50.908;6.974;2023-12-20T14:19:01;8.23;;;2.60;;
8230;SDS011;4156;50.908;6.974;2023-12-20T14:21:28;6.57;;;2.40;;
8230;SDS011;4156;50.908;6.974;2023-12-20T14:23:53;7.33;;;2.43;;
8230;SDS011;4156;50.908;6.974;2023-12-20T14:26:19;6.20;;;2.63;;
8230;SDS011;4156;50.908;6.974;2023-12-20T14:28:44;6.33;;;2.70;;
8230;SDS011;4156;50.908;6.974;2023-12-20T14:31:10;6.30;;;2.63;;
8230;SDS011;4156;50.908;6.974;2023-12-20T14:33:36;9.30;;;3.20;;
8230;SDS011;4156;50.908;6.974;2023-12-20T14:36:03;5.53;;;2.43;;
8230;SDS011;4156;50.908;6.974;2023-12-20T14:38:30;4.33;;;2.50;;
8230;SDS011;4156;50.908;6.974;2023-12-20T14:40:56;4.27;;;2.43;;
8230;SDS011;4156;50.908;6.974;2023-12-20T14:43:22;5.60;;;2.50;;
8230;SDS011;4156;50.908;6.974;2023-12-20T14:45:48;9.20;;;3.97;;
8230;SDS011;4156;50.908;6.974;2023-12-20T14:48:13;6.10;;;2.83;;
8230;SDS011;4156;50.908;6.974;2023-12-20T14:50:39;10.33;;;3.07;;
8230;SDS011;4156;50.908;6.974;2023-12-20T14:53:07;6.53;;;2.60;;
8230;SDS011;4156;50.908;6.974;2023-12-20T14:55:33;6.80;;;2.50;;
8230;SDS011;4156;50.908;6.974;2023-12-20T14:57:59;5.37;;;2.60;;
8230;SDS011;4156;50.908;6.974;2023-12-20T15:00:24;8.80;;;2.53;;
8230;SDS011;4156;50.908;6.974;2023-12-20T15:02:50;7.77;;;2.80;;
8230;SDS011;4156;50.908;6.974;2023-12-20T15:05:16;7.40;;;2.47;;
8230;SDS011;4156;50.908;6.974;2023-12-20T15:07:42;21.03;;;2.83;;
8230;SDS011;4156;50.908;6.974;2023-12-20T15:10:08;7.53;;;2.77;;
8230;SDS011;4156;50.908;6.974;2023-12-20T15:12:34;5.97;;;2.43;;
8230;SDS011;4156;50.908;6.974;2023-12-20T15:15:00;7.20;;;2.47;;